createdAt,value
2023-02-25T00:00:37.106Z,6.48
2023-02-25T00:03:05.106Z,6.93
2023-02-25T00:05:33.587Z,7.54
2023-02-25T00:08:01.225Z,7.06
2023-02-25T00:10:28.721Z,7.40
2023-02-25T00:13:08.922Z,6.19
2023-02-25T00:15:43.584Z,6.94
2023-02-25T00:18:11.035Z,6.38
2023-02-25T00:20:40.515Z,5.25
2023-02-25T00:23:08.123Z,4.29
2023-02-25T00:25:35.566Z,3.91
2023-02-25T00:28:06.274Z,3.74
2023-02-25T00:30:34.375Z,3.67
2023-02-25T00:33:01.965Z,3.58
2023-02-25T00:35:29.396Z,4.15
2023-02-25T00:38:04.013Z,4.00
2023-02-25T00:40:39.768Z,3.99
2023-02-25T00:43:08.890Z,3.96
2023-02-25T00:45:36.631Z,3.93
2023-02-25T00:48:04.191Z,4.12
2023-02-25T00:50:31.601Z,4.38
2023-02-25T00:52:59.053Z,4.70
2023-02-25T00:55:33.293Z,4.53
2023-02-25T00:58:01.770Z,4.38
2023-02-25T01:00:35.840Z,4.06
2023-02-25T01:03:08.130Z,4.14
2023-02-25T01:05:35.574Z,4.76
2023-02-25T01:08:03.320Z,4.79
2023-02-25T01:10:30.714Z,4.41
2023-02-25T01:12:58.233Z,4.44
2023-02-25T01:15:25.733Z,5.04
2023-02-25T01:17:54.470Z,5.13
2023-02-25T01:20:24.093Z,5.40
2023-02-25T01:22:51.508Z,5.34
2023-02-25T01:25:18.953Z,5.02
2023-02-25T01:27:46.438Z,5.18
2023-02-25T01:30:14.254Z,5.29
2023-02-25T01:32:41.783Z,4.83
2023-02-25T01:35:10.763Z,4.91
2023-02-25T01:37:38.312Z,4.59
2023-02-25T01:40:07.359Z,4.61
2023-02-25T01:42:34.797Z,4.53
2023-02-25T01:45:26.900Z,4.44
2023-02-25T01:47:58.704Z,4.78
2023-02-25T01:50:32.587Z,4.68
2023-02-25T01:53:03.645Z,4.72
2023-02-25T01:55:31.711Z,4.85
2023-02-25T01:58:01.237Z,4.64
2023-02-25T02:00:32.132Z,4.63
2023-02-25T02:03:00.383Z,4.67
2023-02-25T02:05:41.922Z,4.78
2023-02-25T02:08:10.146Z,4.73
2023-02-25T02:10:37.609Z,4.64
2023-02-25T02:13:05.194Z,4.50
2023-02-25T02:15:38.928Z,4.61
2023-02-25T02:18:08.568Z,4.64
2023-02-25T02:20:48.542Z,4.57
2023-02-25T02:23:40.801Z,4.69
2023-02-25T02:26:29.964Z,4.53
2023-02-25T02:29:37.360Z,4.48
2023-02-25T02:32:14.727Z,4.32
2023-02-25T02:34:49.621Z,4.47
2023-02-25T02:37:27.204Z,4.43
2023-02-25T02:40:06.682Z,4.54
2023-02-25T02:42:41.816Z,4.73
2023-02-25T02:45:14.503Z,4.70
2023-02-25T02:47:47.236Z,4.55
2023-02-25T02:50:19.624Z,4.55
2023-02-25T02:52:52.166Z,4.57
2023-02-25T02:55:23.547Z,4.64
2023-02-25T02:57:54.691Z,4.69
2023-02-25T03:00:26.582Z,4.42
2023-02-25T03:03:02.573Z,4.36
2023-02-25T03:05:32.651Z,4.29
2023-02-25T03:08:06.782Z,4.23
2023-02-25T03:10:35.284Z,4.33
2023-02-25T03:13:02.771Z,4.54
2023-02-25T03:15:33.031Z,4.19
2023-02-25T03:18:06.900Z,4.34
2023-02-25T03:20:41.524Z,4.46
2023-02-25T03:23:13.410Z,4.48
2023-02-25T03:25:47.667Z,4.53
2023-02-25T03:28:25.704Z,4.56
2023-02-25T03:31:01.583Z,4.79
2023-02-25T03:33:35.947Z,4.75
2023-02-25T03:36:09.529Z,4.63
2023-02-25T03:38:39.970Z,4.72
2023-02-25T03:41:10.801Z,4.54
2023-02-25T03:43:43.167Z,4.37
2023-02-25T03:46:11.611Z,4.49
2023-02-25T03:48:41.810Z,4.28
2023-02-25T03:51:10.749Z,4.39
2023-02-25T03:53:38.480Z,4.15
2023-02-25T03:56:09.312Z,4.43
2023-02-25T03:58:38.346Z,4.37
2023-02-25T04:01:09.333Z,4.40
2023-02-25T04:03:36.836Z,4.01
2023-02-25T04:06:06.506Z,4.07
2023-02-25T04:08:34.010Z,4.31
2023-02-25T04:11:01.444Z,3.98
2023-02-25T04:13:28.843Z,4.00
2023-02-25T04:15:56.467Z,3.98
2023-02-25T04:18:24.916Z,4.15
2023-02-25T04:20:52.403Z,4.26
2023-02-25T04:23:21.179Z,4.01
2023-02-25T04:25:48.633Z,3.95
2023-02-25T04:28:16.152Z,4.10
2023-02-25T04:30:43.898Z,3.90
2023-02-25T04:33:11.716Z,3.90
2023-02-25T04:35:39.549Z,3.76
2023-02-25T04:38:09.115Z,3.81
2023-02-25T04:40:38.549Z,3.64
2023-02-25T04:43:06.084Z,3.72
2023-02-25T04:45:33.611Z,3.81
2023-02-25T04:48:01.310Z,3.38
2023-02-25T04:50:28.799Z,3.69
2023-02-25T04:52:56.354Z,3.66
2023-02-25T04:55:23.796Z,3.61
2023-02-25T04:57:52.566Z,3.68
2023-02-25T05:00:24.111Z,3.73
2023-02-25T05:02:51.966Z,3.70
2023-02-25T05:05:19.720Z,3.59
2023-02-25T05:07:47.261Z,3.68
2023-02-25T05:10:15.656Z,3.75
2023-02-25T05:12:43.244Z,3.39
2023-02-25T05:15:13.361Z,3.50
2023-02-25T05:17:40.835Z,3.51
2023-02-25T05:20:13.010Z,3.54
2023-02-25T05:22:41.639Z,3.63
2023-02-25T05:25:10.362Z,3.38
2023-02-25T05:27:38.114Z,3.41
2023-02-25T05:30:06.704Z,3.42
2023-02-25T05:32:35.585Z,3.44
2023-02-25T05:35:03.187Z,3.51
2023-02-25T05:37:32.507Z,3.59
2023-02-25T05:39:59.970Z,3.49
2023-02-25T05:42:27.563Z,3.48
2023-02-25T05:44:55.009Z,3.59
2023-02-25T05:47:22.553Z,3.50
2023-02-25T05:49:51.304Z,3.61
2023-02-25T05:52:18.703Z,3.47
2023-02-25T05:54:46.198Z,3.22
2023-02-25T05:57:13.593Z,3.33
2023-02-25T05:59:41.045Z,3.40
2023-02-25T06:02:08.749Z,3.41
2023-02-25T06:04:36.201Z,3.48
2023-02-25T06:07:05.056Z,3.67
2023-02-25T06:09:34.589Z,3.34
2023-02-25T06:12:02.014Z,3.55
2023-02-25T06:14:29.495Z,3.46
2023-02-25T06:16:57.286Z,3.40
2023-02-25T06:19:26.329Z,3.43
2023-02-25T06:21:54.741Z,3.21
2023-02-25T06:24:24.698Z,3.37
2023-02-25T06:26:52.252Z,3.29
2023-02-25T06:29:19.956Z,3.33
2023-02-25T06:31:47.569Z,3.21
2023-02-25T06:34:15.098Z,3.30
2023-02-25T06:36:42.576Z,3.30
2023-02-25T06:39:12.329Z,3.36
2023-02-25T06:41:41.131Z,3.11
2023-02-25T06:44:08.594Z,3.08
2023-02-25T06:46:36.168Z,3.25
2023-02-25T06:49:03.783Z,3.35
2023-02-25T06:51:31.276Z,3.11
2023-02-25T06:53:58.764Z,2.96
2023-02-25T06:56:26.781Z,2.88
2023-02-25T06:58:56.763Z,2.74
2023-02-25T07:01:24.267Z,2.81
2023-02-25T07:03:51.779Z,2.81
2023-02-25T07:06:19.696Z,2.78
2023-02-25T07:08:47.371Z,3.01
2023-02-25T07:11:27.007Z,3.19
2023-02-25T07:13:55.995Z,3.04
2023-02-25T07:16:23.754Z,3.21
2023-02-25T07:18:51.868Z,3.13
2023-02-25T07:21:19.999Z,3.02
2023-02-25T07:23:47.467Z,3.14
2023-02-25T07:26:15.953Z,3.19
2023-02-25T07:28:44.380Z,2.97
2023-02-25T07:31:15.968Z,3.07
2023-02-25T07:33:43.740Z,3.34
2023-02-25T07:36:12.422Z,3.04
2023-02-25T07:38:40.147Z,3.09
2023-02-25T07:41:09.055Z,3.08
2023-02-25T07:43:36.865Z,2.84
2023-02-25T07:46:05.140Z,2.72
2023-02-25T07:48:34.126Z,2.85
2023-02-25T07:51:06.100Z,2.86
2023-02-25T07:53:33.599Z,2.78
2023-02-25T07:56:01.161Z,2.98
2023-02-25T07:58:28.824Z,3.12
2023-02-25T08:00:56.614Z,2.90
2023-02-25T08:03:24.098Z,3.14
2023-02-25T08:05:54.651Z,3.08
2023-02-25T08:08:23.143Z,3.01
2023-02-25T08:10:50.675Z,3.04
2023-02-25T08:13:18.123Z,3.34
2023-02-25T08:15:46.552Z,3.14
2023-02-25T08:18:14.444Z,3.18
2023-02-25T08:20:47.241Z,2.81
2023-02-25T08:23:16.424Z,2.94
2023-02-25T08:25:43.877Z,3.02
2023-02-25T08:28:11.427Z,3.10
2023-02-25T08:30:38.924Z,3.37
2023-02-25T08:33:06.399Z,3.16
2023-02-25T08:35:33.840Z,3.14
2023-02-25T08:38:01.267Z,3.08
2023-02-25T08:40:30.015Z,3.18
2023-02-25T08:42:57.463Z,3.37
2023-02-25T08:45:25.989Z,3.28
2023-02-25T08:47:53.861Z,3.07
2023-02-25T08:50:23.794Z,3.39
2023-02-25T08:52:52.183Z,3.37
2023-02-25T08:55:19.914Z,3.19
2023-02-25T08:57:48.680Z,3.11
2023-02-25T09:00:16.784Z,3.18
2023-02-25T09:02:44.979Z,3.26
2023-02-25T09:05:12.473Z,2.96
2023-02-25T09:07:40.142Z,3.21
2023-02-25T09:10:09.258Z,2.93
2023-02-25T09:12:38.305Z,2.73
2023-02-25T09:15:08.781Z,2.92
2023-02-25T09:17:36.220Z,2.93
2023-02-25T09:20:07.063Z,3.27
2023-02-25T09:22:34.712Z,3.06
2023-02-25T09:25:02.171Z,3.15
2023-02-25T09:27:29.642Z,3.12
2023-02-25T09:29:57.120Z,3.04
2023-02-25T09:32:26.044Z,3.18
2023-02-25T09:34:53.536Z,3.44
2023-02-25T09:37:21.882Z,3.26
2023-02-25T09:39:49.802Z,3.68
2023-02-25T09:42:21.576Z,3.61
2023-02-25T09:44:52.188Z,3.32
2023-02-25T09:47:25.450Z,3.19
2023-02-25T09:49:59.018Z,3.33
2023-02-25T09:52:30.336Z,3.67
2023-02-25T09:55:03.855Z,3.82
2023-02-25T09:57:36.512Z,3.77
2023-02-25T10:00:12.643Z,4.25
2023-02-25T10:02:48.557Z,4.12
2023-02-25T10:05:26.228Z,3.59
2023-02-25T10:08:00.960Z,3.05
2023-02-25T10:10:35.702Z,2.88
2023-02-25T10:13:18.064Z,2.39
2023-02-25T10:15:53.607Z,2.41
2023-02-25T10:18:42.589Z,2.12
2023-02-25T10:21:23.963Z,1.87
2023-02-25T10:24:04.823Z,1.86
2023-02-25T10:26:36.595Z,2.03
2023-02-25T10:29:07.443Z,2.24
2023-02-25T10:31:36.678Z,2.47
2023-02-25T10:34:20.969Z,2.45
2023-02-25T10:36:54.506Z,2.61
2023-02-25T10:39:22.392Z,2.76
2023-02-25T10:41:50.253Z,2.86
2023-02-25T10:44:18.273Z,3.36
2023-02-25T10:46:54.235Z,3.09
2023-02-25T10:49:25.390Z,3.02
2023-02-25T10:52:03.236Z,3.27
2023-02-25T10:54:32.524Z,3.82
2023-02-25T10:57:02.299Z,4.61
2023-02-25T10:59:33.441Z,4.99
2023-02-25T11:02:02.051Z,4.43
2023-02-25T11:04:35.576Z,4.52
2023-02-25T11:07:25.689Z,8.99
2023-02-25T11:10:13.715Z,9.10
2023-02-25T11:12:43.718Z,6.18
2023-02-25T11:15:43.602Z,8.65
2023-02-25T11:18:20.750Z,9.31
2023-02-25T11:20:51.572Z,8.09
2023-02-25T11:23:24.029Z,4.72
2023-02-25T11:25:53.658Z,4.56
2023-02-25T11:28:31.065Z,4.11
2023-02-25T11:31:08.358Z,3.37
2023-02-25T11:33:39.485Z,3.39
2023-02-25T11:36:08.140Z,3.13
2023-02-25T11:38:38.545Z,3.28
2023-02-25T11:41:17.370Z,3.59
2023-02-25T11:43:45.374Z,3.27
2023-02-25T11:46:19.562Z,3.25
2023-02-25T11:48:50.706Z,3.59
2023-02-25T11:51:25.494Z,3.52
2023-02-25T11:54:05.487Z,3.24
2023-02-25T11:56:36.449Z,3.53
2023-02-25T11:59:22.394Z,3.65
2023-02-25T12:02:23.863Z,3.41
2023-02-25T12:05:24.737Z,3.17
2023-02-25T12:08:13.792Z,3.09
2023-02-25T12:11:12.515Z,3.07
2023-02-25T12:14:11.410Z,3.27
2023-02-25T12:17:09.788Z,3.37
2023-02-25T12:20:05.674Z,3.84
2023-02-25T12:22:58.737Z,3.56
2023-02-25T12:25:38.242Z,3.65
2023-02-25T12:28:22.922Z,3.21
2023-02-25T12:31:21.704Z,2.74
2023-02-25T12:34:11.453Z,2.48
2023-02-25T12:36:49.344Z,2.40
2023-02-25T12:39:39.911Z,2.57
2023-02-25T12:42:21.188Z,2.41
2023-02-25T12:45:34.635Z,2.58
2023-02-25T12:48:28.839Z,2.36
2023-02-25T12:51:14.947Z,2.56
2023-02-25T12:53:54.580Z,3.01
2023-02-25T12:56:53.196Z,2.79
2023-02-25T12:59:51.931Z,2.64
2023-02-25T13:02:35.919Z,2.60
2023-02-25T13:05:26.932Z,2.41
2023-02-25T13:08:17.031Z,2.22
2023-02-25T13:11:01.215Z,2.08
2023-02-25T13:14:03.880Z,2.18
2023-02-25T13:16:43.821Z,2.17
2023-02-25T13:19:30.095Z,2.42
2023-02-25T13:22:16.404Z,2.25
2023-02-25T13:24:50.746Z,2.12
2023-02-25T13:27:43.751Z,2.27
2023-02-25T13:30:30.602Z,2.28
2023-02-25T13:33:11.081Z,2.42
2023-02-25T13:35:49.813Z,2.27
2023-02-25T13:38:35.276Z,2.37
2023-02-25T13:41:19.130Z,2.55
2023-02-25T13:44:13.126Z,2.57
2023-02-25T13:47:05.070Z,2.57
2023-02-25T13:50:04.441Z,2.42
2023-02-25T13:52:37.055Z,2.24
2023-02-25T13:55:25.073Z,2.38
2023-02-25T13:58:13.695Z,2.25
2023-02-25T14:01:23.542Z,2.14
2023-02-25T14:04:45.167Z,1.41
2023-02-25T14:07:52.355Z,1.68
2023-02-25T14:10:34.561Z,1.77
2023-02-25T14:13:18.487Z,2.24
2023-02-25T14:15:56.017Z,2.12
2023-02-25T14:18:38.836Z,2.12
2023-02-25T14:21:24.913Z,2.17
2023-02-25T14:23:58.240Z,2.28
2023-02-25T14:26:36.522Z,2.18
2023-02-25T14:29:16.457Z,2.28
2023-02-25T14:31:59.738Z,2.20
2023-02-25T14:34:37.114Z,2.52
2023-02-25T14:37:34.814Z,2.38
2023-02-25T14:40:29.799Z,2.53
2023-02-25T14:43:33.441Z,2.50
2023-02-25T14:46:10.341Z,2.85
2023-02-25T14:48:44.482Z,2.64
2023-02-25T14:51:33.357Z,2.88
2023-02-25T14:54:16.324Z,2.51
2023-02-25T14:57:13.322Z,2.50
2023-02-25T15:00:19.099Z,2.44
2023-02-25T15:03:11.084Z,2.38
2023-02-25T15:06:08.341Z,2.64
2023-02-25T15:09:07.060Z,2.56
2023-02-25T15:11:50.605Z,2.61
2023-02-25T15:14:39.558Z,2.65
2023-02-25T15:17:29.150Z,2.53
2023-02-25T15:20:22.798Z,2.64
2023-02-25T15:23:11.847Z,2.43
2023-02-25T15:25:49.945Z,2.78
2023-02-25T15:28:41.151Z,2.71
2023-02-25T15:31:38.907Z,2.48
2023-02-25T15:34:39.370Z,2.77
2023-02-25T15:37:37.148Z,2.47
2023-02-25T15:40:38.249Z,2.56
2023-02-25T15:43:39.000Z,2.43
2023-02-25T15:46:42.148Z,2.37
2023-02-25T15:49:23.131Z,2.63
2023-02-25T15:51:53.379Z,2.88
2023-02-25T15:54:49.293Z,2.26
2023-02-25T15:57:37.151Z,2.37
2023-02-25T16:00:31.153Z,2.04
2023-02-25T16:03:01.674Z,1.96
2023-02-25T16:05:34.332Z,1.75
2023-02-25T16:08:17.294Z,1.67
2023-02-25T16:10:50.716Z,1.51
2023-02-25T16:13:26.810Z,1.63
2023-02-25T16:15:57.532Z,1.44
2023-02-25T16:18:31.404Z,1.58
2023-02-25T16:21:01.621Z,1.32
2023-02-25T16:23:30.982Z,1.40
2023-02-25T16:26:09.126Z,1.59
2023-02-25T16:28:51.420Z,1.57
2023-02-25T16:31:24.677Z,1.49
2023-02-25T16:33:58.277Z,1.55
2023-02-25T16:36:35.170Z,1.37
2023-02-25T16:39:06.196Z,1.44
2023-02-25T16:41:38.741Z,1.58
2023-02-25T16:44:07.275Z,1.47
2023-02-25T16:46:39.078Z,1.20
2023-02-25T16:49:13.370Z,1.45
2023-02-25T16:51:46.749Z,1.51
2023-02-25T16:54:18.439Z,1.24
2023-02-25T16:56:50.036Z,1.28
2023-02-25T16:59:21.684Z,1.46
2023-02-25T17:01:56.875Z,1.42
2023-02-25T17:04:25.956Z,1.41
2023-02-25T17:07:13.419Z,1.61
2023-02-25T17:09:46.252Z,1.59
2023-02-25T17:12:19.552Z,1.62
2023-02-25T17:14:49.329Z,1.72
2023-02-25T17:17:21.913Z,1.32
2023-02-25T17:19:50.862Z,1.39
2023-02-25T17:22:22.343Z,1.36
2023-02-25T17:24:53.828Z,1.32
2023-02-25T17:27:24.445Z,1.20
2023-02-25T17:29:53.602Z,1.24
2023-02-25T17:32:24.336Z,1.26
2023-02-25T17:34:55.323Z,1.35
2023-02-25T17:37:24.752Z,1.29
2023-02-25T17:39:53.485Z,1.35
2023-02-25T17:42:35.458Z,1.41
2023-02-25T17:45:07.249Z,1.39
2023-02-25T17:47:37.235Z,1.63
2023-02-25T17:50:22.691Z,1.62
2023-02-25T17:52:50.410Z,1.54
2023-02-25T17:55:24.258Z,1.55
2023-02-25T17:57:54.686Z,1.64
2023-02-25T18:00:26.113Z,1.42
2023-02-25T18:03:15.374Z,1.47
2023-02-25T18:05:51.258Z,1.31
2023-02-25T18:08:20.734Z,1.37
2023-02-25T18:10:57.524Z,1.59
2023-02-25T18:13:33.742Z,1.71
2023-02-25T18:16:37.797Z,2.01
2023-02-25T18:19:10.786Z,1.53
2023-02-25T18:21:43.002Z,1.42
2023-02-25T18:24:23.736Z,1.63
2023-02-25T18:27:02.513Z,1.20
2023-02-25T18:29:32.023Z,1.18
2023-02-25T18:31:59.698Z,1.10
2023-02-25T18:34:27.240Z,1.13
2023-02-25T18:36:54.750Z,1.29
2023-02-25T18:39:24.544Z,1.18
2023-02-25T18:41:53.260Z,1.21
2023-02-25T18:44:20.802Z,1.18
2023-02-25T18:46:49.639Z,1.14
2023-02-25T18:49:17.212Z,1.17
2023-02-25T18:51:44.770Z,0.94
2023-02-25T18:54:17.409Z,1.29
2023-02-25T18:56:45.056Z,1.15
2023-02-25T18:59:12.475Z,1.09
2023-02-25T19:01:41.562Z,1.20
2023-02-25T19:04:16.108Z,1.15
2023-02-25T19:06:43.612Z,1.15
2023-02-25T19:09:11.445Z,1.25
2023-02-25T19:11:39.155Z,1.21
2023-02-25T19:14:08.236Z,1.01
2023-02-25T19:16:35.874Z,1.11
2023-02-25T19:19:05.785Z,1.37
2023-02-25T19:21:36.573Z,1.49
2023-02-25T19:24:04.128Z,1.30
2023-02-25T19:26:31.566Z,1.14
2023-02-25T19:28:59.050Z,1.00
2023-02-25T19:31:26.595Z,1.19
2023-02-25T19:33:54.307Z,1.27
2023-02-25T19:36:21.742Z,1.16
2023-02-25T19:38:50.631Z,1.12
2023-02-25T19:41:18.076Z,1.26
2023-02-25T19:43:45.619Z,1.40
2023-02-25T19:46:17.090Z,1.20
2023-02-25T19:48:44.703Z,1.12
2023-02-25T19:51:12.877Z,1.03
2023-02-25T19:53:41.285Z,1.27
2023-02-25T19:56:10.346Z,1.48
2023-02-25T19:58:37.938Z,1.71
2023-02-25T20:01:08.237Z,1.15
2023-02-25T20:03:36.636Z,1.12
2023-02-25T20:06:08.257Z,1.90
2023-02-25T20:08:37.199Z,1.82
2023-02-25T20:11:10.667Z,1.50
2023-02-25T20:13:39.265Z,1.18
2023-02-25T20:16:09.207Z,1.09
2023-02-25T20:18:36.791Z,1.03
2023-02-25T20:21:05.250Z,1.41
2023-02-25T20:23:32.853Z,1.05
2023-02-25T20:26:05.939Z,1.10
2023-02-25T20:28:35.562Z,1.18
2023-02-25T20:31:05.233Z,1.26
2023-02-25T20:33:35.521Z,1.25
2023-02-25T20:36:18.048Z,1.37
2023-02-25T20:38:58.708Z,1.08
2023-02-25T20:41:26.743Z,1.20
2023-02-25T20:43:55.802Z,1.04
2023-02-25T20:46:29.709Z,1.03
2023-02-25T20:48:57.708Z,1.02
2023-02-25T20:51:25.782Z,1.09
2023-02-25T20:53:54.476Z,0.92
2023-02-25T20:56:24.896Z,1.01
2023-02-25T20:58:53.404Z,1.07
2023-02-25T21:01:25.613Z,1.04
2023-02-25T21:03:54.433Z,1.10
2023-02-25T21:06:25.690Z,0.88
2023-02-25T21:08:53.996Z,0.98
2023-02-25T21:11:22.521Z,1.01
2023-02-25T21:13:51.514Z,1.05
2023-02-25T21:16:28.811Z,0.87
2023-02-25T21:18:58.991Z,0.84
2023-02-25T21:21:31.573Z,0.85
2023-02-25T21:24:02.258Z,0.76
2023-02-25T21:26:29.945Z,1.07
2023-02-25T21:28:57.401Z,0.85
2023-02-25T21:31:26.646Z,1.26
2023-02-25T21:33:54.190Z,0.79
2023-02-25T21:36:21.790Z,1.28
2023-02-25T21:38:49.304Z,4.32
2023-02-25T21:41:17.201Z,5.29
2023-02-25T21:43:46.107Z,4.86
2023-02-25T21:46:16.919Z,4.37
2023-02-25T21:48:48.495Z,4.84
2023-02-25T21:51:20.996Z,6.37
2023-02-25T21:53:48.964Z,5.43
2023-02-25T21:56:18.293Z,3.92
2023-02-25T21:58:46.273Z,2.59
2023-02-25T22:01:16.133Z,1.68
2023-02-25T22:03:44.496Z,1.38
2023-02-25T22:06:14.243Z,0.92
2023-02-25T22:08:42.498Z,0.86
2023-02-25T22:11:13.171Z,1.06
2023-02-25T22:13:41.117Z,0.84
2023-02-25T22:16:09.170Z,1.05
2023-02-25T22:18:36.985Z,0.87
2023-02-25T22:21:06.761Z,0.93
2023-02-25T22:23:35.709Z,0.89
2023-02-25T22:26:05.262Z,1.02
2023-02-25T22:28:32.909Z,0.82
2023-02-25T22:31:00.961Z,1.04
2023-02-25T22:33:28.754Z,0.72
2023-02-25T22:35:57.923Z,0.69
2023-02-25T22:38:28.126Z,0.85
2023-02-25T22:40:56.931Z,0.64
2023-02-25T22:43:24.679Z,0.87
2023-02-25T22:45:52.638Z,0.98
2023-02-25T22:48:20.692Z,1.31
2023-02-25T22:50:49.888Z,1.25
2023-02-25T22:53:17.929Z,1.05
2023-02-25T22:55:45.620Z,1.05
2023-02-25T22:58:14.506Z,1.05
2023-02-25T23:00:44.400Z,0.93
2023-02-25T23:03:12.198Z,0.94
2023-02-25T23:05:39.703Z,1.33
2023-02-25T23:08:07.239Z,1.26
2023-02-25T23:10:36.055Z,0.88
2023-02-25T23:13:07.964Z,1.03
2023-02-25T23:15:38.428Z,1.13
2023-02-25T23:18:08.651Z,1.20
2023-02-25T23:20:38.497Z,0.63
2023-02-25T23:23:07.594Z,0.91
2023-02-25T23:25:45.455Z,0.97
2023-02-25T23:28:12.892Z,1.25
2023-02-25T23:30:41.657Z,0.73
2023-02-25T23:33:11.104Z,0.72
2023-02-25T23:35:41.580Z,0.60
2023-02-25T23:38:09.529Z,0.86
2023-02-25T23:40:36.986Z,0.64
2023-02-25T23:43:04.561Z,0.70
2023-02-25T23:45:32.799Z,0.79
2023-02-25T23:48:01.652Z,0.64
2023-02-25T23:50:29.148Z,1.04
2023-02-25T23:52:56.654Z,1.32
2023-02-25T23:55:25.538Z,0.76
2023-02-25T23:57:53.282Z,0.96
